Time,TemperatureF,DewpointF,PressureIn,WindDirection,WindDirectionDegrees,WindSpeedMPH,WindSpeedGustMPH,Humidity,HourlyPrecipIn,Conditions,Clouds,dailyrainin,SoftwareType,DateUTC
2013-05-04 00:01:00,33.5,30.9,30.21,NNE,14,1.0,6.0,90,0.00,,---,0.00,VWS V14.01,2013-05-04 05:01:00,
2013-05-04 00:06:00,33.5,30.9,30.21,NNE,23,4.0,7.0,90,0.00,,---,0.00,VWS V14.01,2013-05-04 05:06:00,
2013-05-04 00:11:00,33.5,30.9,30.21,NNW,327,2.0,7.0,90,0.00,,---,0.00,VWS V14.01,2013-05-04 05:11:00,
2013-05-04 00:16:00,33.5,30.9,30.21,North,11,0.0,5.0,90,0.00,,---,0.00,VWS V14.01,2013-05-04 05:16:00,
2013-05-04 00:21:00,33.5,30.9,30.21,North,355,2.0,6.0,90,0.00,,---,0.00,VWS V14.01,2013-05-04 05:21:00,
2013-05-04 00:26:00,33.6,31.0,30.21,North,349,0.0,8.0,90,0.00,,---,0.00,VWS V14.01,2013-05-04 05:26:00,
2013-05-04 00:31:00,33.5,30.9,30.21,North,3,2.0,8.0,90,0.00,,---,0.00,VWS V14.01,2013-05-04 05:31:00,
2013-05-04 00:36:00,33.6,31.0,30.21,NNE,13,4.0,8.0,90,0.00,,---,0.00,VWS V14.01,2013-05-04 05:36:00,
2013-05-04 00:41:00,33.6,31.0,30.21,NNW,335,1.0,8.0,90,0.00,,---,0.00,VWS V14.01,2013-05-04 05:41:00,
2013-05-04 00:46:00,33.6,31.0,30.21,North,9,2.0,7.0,90,0.00,,---,0.00,VWS V14.01,2013-05-04 05:46:00,
2013-05-04 00:51:00,33.7,31.1,30.21,NNW,339,2.0,7.0,90,0.00,,---,0.00,VWS V14.01,2013-05-04 05:51:00,
2013-05-04 00:56:00,33.6,31.0,30.20,North,355,2.0,7.0,90,0.00,,---,0.00,VWS V14.01,2013-05-04 05:56:00,
2013-05-04 01:01:00,33.6,31.0,30.20,NNW,346,0.0,7.0,90,0.00,,---,0.00,VWS V14.01,2013-05-04 06:01:00,
2013-05-04 01:06:00,33.6,31.3,30.20,North,360,1.0,7.0,91,0.00,,---,0.00,VWS V14.01,2013-05-04 06:06:00,
2013-05-04 01:11:00,33.7,31.4,30.20,NNE,20,2.0,8.0,91,0.00,,---,0.00,VWS V14.01,2013-05-04 06:11:00,
2013-05-04 01:16:00,33.7,31.4,30.20,North,356,2.0,3.0,91,0.00,,---,0.00,VWS V14.01,2013-05-04 06:16:00,
2013-05-04 01:21:00,33.7,31.4,30.20,NNW,335,3.0,5.0,91,0.00,,---,0.00,VWS V14.01,2013-05-04 06:21:00,
2013-05-04 01:26:00,33.7,31.4,30.20,NE,44,4.0,5.0,91,0.00,,---,0.00,VWS V14.01,2013-05-04 06:26:00,
2013-05-04 01:31:00,33.8,31.5,30.20,North,353,1.0,4.0,91,0.00,,---,0.00,VWS V14.01,2013-05-04 06:31:00,
2013-05-04 01:36:00,33.7,31.4,30.19,North,349,1.0,4.0,91,0.00,,---,0.00,VWS V14.01,2013-05-04 06:36:00,
2013-05-04 01:41:00,33.7,31.4,30.19,NNW,344,1.0,4.0,91,0.00,,---,0.00,VWS V14.01,2013-05-04 06:41:00,
2013-05-04 01:46:00,33.7,31.4,30.19,NNW,339,1.0,6.0,91,0.00,,---,0.00,VWS V14.01,2013-05-04 06:46:00,
2013-05-04 01:51:00,33.7,31.4,30.19,North,351,1.0,6.0,91,0.00,,---,0.00,VWS V14.01,2013-05-04 06:51:00,
2013-05-04 01:56:00,33.7,31.4,30.19,NNW,332,1.0,6.0,91,0.00,,---,0.00,VWS V14.01,2013-05-04 06:56:00,
2013-05-04 02:01:00,33.7,31.4,30.19,North,6,1.0,4.0,91,0.00,,---,0.00,VWS V14.01,2013-05-04 07:01:00,
2013-05-04 02:06:00,33.7,31.4,30.19,WNW,296,4.0,5.0,91,0.00,,---,0.00,VWS V14.01,2013-05-04 07:06:00,
2013-05-04 02:11:00,33.7,31.4,30.19,North,5,1.0,7.0,91,0.00,,---,0.00,VWS V14.01,2013-05-04 07:11:00,
2013-05-04 02:16:00,33.7,31.4,30.18,North,351,1.0,7.0,91,0.00,,---,0.00,VWS V14.01,2013-05-04 07:16:00,
2013-05-04 02:20:00,33.7,31.4,30.18,West,265,3.0,7.0,91,0.00,,---,0.00,VWS V14.01,2013-05-04 07:20:00,
2013-05-04 02:25:00,33.7,31.4,30.18,NNW,345,1.0,7.0,91,0.00,,---,0.00,VWS V14.01,2013-05-04 07:25:00,
2013-05-04 02:30:00,33.9,31.6,30.18,NNW,335,1.0,5.0,91,0.00,,---,0.00,VWS V14.01,2013-05-04 07:30:00,
2013-05-04 02:35:00,33.8,31.5,30.18,NW,321,2.0,5.0,91,0.00,,---,0.00,VWS V14.01,2013-05-04 07:35:00,
2013-05-04 02:40:00,33.8,31.7,30.19,NNW,347,0.0,5.0,92,0.00,,---,0.00,VWS V14.01,2013-05-04 07:40:00,
2013-05-04 02:45:00,33.7,31.6,30.18,North,351,0.0,4.0,92,0.00,,---,0.00,VWS V14.01,2013-05-04 07:45:00,
2013-05-04 02:50:00,33.6,31.5,30.18,North,9,1.0,8.0,92,0.00,,---,0.00,VWS V14.01,2013-05-04 07:50:00,
2013-05-04 02:55:00,33.6,31.5,30.19,North,11,2.0,8.0,92,0.01,,---,0.01,VWS V14.01,2013-05-04 07:55:00,
2013-05-04 03:00:00,33.6,31.5,30.19,North,353,0.0,5.0,92,0.01,,---,0.01,VWS V14.01,2013-05-04 08:00:00,
2013-05-04 03:05:00,33.6,31.5,30.19,NNE,17,2.0,5.0,92,0.01,,---,0.01,VWS V14.01,2013-05-04 08:05:00,
2013-05-04 03:10:00,33.5,31.7,30.19,NNE,29,8.0,8.0,93,0.01,,---,0.01,VWS V14.01,2013-05-04 08:10:00,
2013-05-04 03:15:00,33.4,31.6,30.19,North,355,1.0,6.0,93,0.02,,---,0.02,VWS V14.01,2013-05-04 08:15:00,
2013-05-04 03:20:00,33.4,31.6,30.19,North,360,2.0,6.0,93,0.02,,---,0.02,VWS V14.01,2013-05-04 08:20:00,
2013-05-04 03:25:00,33.3,31.5,30.19,NNE,13,1.0,6.0,93,0.02,,---,0.02,VWS V14.01,2013-05-04 08:25:00,
2013-05-04 03:30:00,33.4,31.6,30.19,NNW,330,1.0,5.0,93,0.02,,---,0.02,VWS V14.01,2013-05-04 08:30:00,
2013-05-04 03:35:00,33.3,31.5,30.19,North,2,2.0,7.0,93,0.03,,---,0.03,VWS V14.01,2013-05-04 08:35:00,
2013-05-04 03:40:00,33.3,31.8,30.19,NW,314,1.0,7.0,94,0.03,,---,0.03,VWS V14.01,2013-05-04 08:40:00,
2013-05-04 03:45:00,33.3,31.8,30.19,North,351,0.0,3.0,94,0.03,,---,0.03,VWS V14.01,2013-05-04 08:45:00,
2013-05-04 03:50:00,33.4,31.9,30.19,North,10,1.0,3.0,94,0.03,,---,0.03,VWS V14.01,2013-05-04 08:50:00,
2013-05-04 03:55:00,33.5,32.0,30.18,NNW,327,1.0,3.0,94,0.03,,---,0.03,VWS V14.01,2013-05-04 08:55:00,
2013-05-04 04:00:00,33.4,31.9,30.18,NNE,26,3.0,3.0,94,0.02,,---,0.03,VWS V14.01,2013-05-04 09:00:00,
2013-05-04 04:05:00,33.3,31.8,30.18,North,353,1.0,4.0,94,0.03,,---,0.04,VWS V14.01,2013-05-04 09:05:00,
2013-05-04 04:10:00,33.3,31.8,30.17,NNE,23,1.0,4.0,94,0.04,,---,0.05,VWS V14.01,2013-05-04 09:10:00,
2013-05-04 04:15:00,33.3,31.8,30.18,WNW,299,0.0,6.0,94,0.05,,---,0.06,VWS V14.01,2013-05-04 09:15:00,
2013-05-04 04:20:00,33.3,31.8,30.18,NNE,29,4.0,7.0,94,0.05,,---,0.06,VWS V14.01,2013-05-04 09:20:00,
2013-05-04 04:25:00,33.3,31.8,30.18,NNW,335,1.0,7.0,94,0.05,,---,0.06,VWS V14.01,2013-05-04 09:25:00,
2013-05-04 04:30:00,33.3,31.8,30.18,North,351,0.0,4.0,94,0.04,,---,0.06,VWS V14.01,2013-05-04 09:30:00,
2013-05-04 04:35:00,33.3,31.8,30.18,NW,325,2.0,5.0,94,0.04,,---,0.06,VWS V14.01,2013-05-04 09:35:00,
2013-05-04 04:40:00,33.3,31.8,30.18,NNE,13,1.0,6.0,94,0.05,,---,0.07,VWS V14.01,2013-05-04 09:40:00,
2013-05-04 04:45:00,33.3,31.8,30.17,NNW,345,2.0,6.0,94,0.04,,---,0.07,VWS V14.01,2013-05-04 09:45:00,
2013-05-04 04:50:00,33.3,31.8,30.17,NW,325,3.0,6.0,94,0.04,,---,0.07,VWS V14.01,2013-05-04 09:50:00,
2013-05-04 04:55:00,33.3,31.8,30.17,North,355,1.0,6.0,94,0.04,,---,0.07,VWS V14.01,2013-05-04 09:55:00,
2013-05-04 05:00:00,33.3,31.8,30.17,NNE,12,2.0,5.0,94,0.04,,---,0.07,VWS V14.01,2013-05-04 10:00:00,
2013-05-04 05:05:00,33.3,31.8,30.17,North,6,1.0,5.0,94,0.04,,---,0.07,VWS V14.01,2013-05-04 10:05:00,
2013-05-04 05:10:00,33.3,31.8,30.17,NNW,328,4.0,7.0,94,0.04,,---,0.07,VWS V14.01,2013-05-04 10:10:00,
2013-05-04 05:15:00,33.3,31.8,30.17,NNW,339,2.0,6.0,94,0.02,,---,0.07,VWS V14.01,2013-05-04 10:15:00,
2013-05-04 05:20:00,33.3,31.8,30.17,NNE,13,2.0,6.0,94,0.02,,---,0.07,VWS V14.01,2013-05-04 10:20:00,
2013-05-04 05:25:00,33.3,31.8,30.18,NNW,345,1.0,6.0,94,0.02,,---,0.07,VWS V14.01,2013-05-04 10:25:00,
2013-05-04 05:30:00,33.3,31.8,30.18,NNW,332,0.0,4.0,94,0.01,,---,0.07,VWS V14.01,2013-05-04 10:30:00,
2013-05-04 05:35:00,33.3,31.8,30.18,NE,36,1.0,5.0,94,0.01,,---,0.07,VWS V14.01,2013-05-04 10:35:00,
2013-05-04 05:40:00,33.3,31.8,30.18,NNW,339,1.0,5.0,94,0.01,,---,0.07,VWS V14.01,2013-05-04 10:40:00,
2013-05-04 05:45:00,33.3,31.8,30.18,North,352,0.0,2.0,94,0.00,,---,0.07,VWS V14.01,2013-05-04 10:45:00,
2013-05-04 05:50:00,33.4,31.9,30.18,NNW,345,1.0,4.0,94,0.00,,---,0.07,VWS V14.01,2013-05-04 10:50:00,
2013-05-04 05:55:00,33.4,31.9,30.18,NNW,338,1.0,6.0,94,0.00,,---,0.07,VWS V14.01,2013-05-04 10:55:00,
2013-05-04 06:00:00,33.4,31.9,30.18,NNE,26,1.0,6.0,94,0.00,,---,0.07,VWS V14.01,2013-05-04 11:00:00,
2013-05-04 06:05:00,33.5,32.0,30.18,North,349,1.0,7.0,94,0.00,,---,0.07,VWS V14.01,2013-05-04 11:05:00,
2013-05-04 06:10:00,33.5,32.0,30.18,NNE,19,1.0,7.0,94,0.00,,---,0.07,VWS V14.01,2013-05-04 11:10:00,
2013-05-04 06:15:00,33.5,32.0,30.18,NNW,346,2.0,4.0,94,0.00,,---,0.07,VWS V14.01,2013-05-04 11:15:00,
2013-05-04 06:20:00,33.6,32.1,30.18,North,6,2.0,7.0,94,0.00,,---,0.07,VWS V14.01,2013-05-04 11:20:00,
2013-05-04 06:25:00,33.6,32.1,30.18,NNE,14,1.0,7.0,94,0.00,,---,0.07,VWS V14.01,2013-05-04 11:25:00,
2013-05-04 06:30:00,33.6,32.1,30.18,NNE,22,1.0,7.0,94,0.00,,---,0.07,VWS V14.01,2013-05-04 11:30:00,
2013-05-04 06:35:00,33.7,32.2,30.17,NNW,330,0.0,7.0,94,0.00,,---,0.07,VWS V14.01,2013-05-04 11:35:00,
2013-05-04 06:40:00,33.7,32.2,30.18,NW,320,1.0,7.0,94,0.01,,---,0.08,VWS V14.01,2013-05-04 11:40:00,
2013-05-04 06:45:00,33.7,32.2,30.18,NNE,16,0.0,5.0,94,0.01,,---,0.08,VWS V14.01,2013-05-04 11:45:00,
2013-05-04 06:50:00,33.7,32.2,30.19,North,2,0.0,5.0,94,0.01,,---,0.08,VWS V14.01,2013-05-04 11:50:00,
2013-05-04 06:55:00,33.7,32.2,30.18,North,356,0.0,5.0,94,0.02,,---,0.09,VWS V14.01,2013-05-04 11:55:00,
2013-05-04 07:00:00,33.7,32.2,30.19,North,7,1.0,3.0,94,0.02,,---,0.09,VWS V14.01,2013-05-04 12:00:00,
2013-05-04 07:06:00,33.7,32.2,30.18,NNE,16,2.0,7.0,94,0.02,,---,0.09,VWS V14.01,2013-05-04 12:06:00,
2013-05-04 07:11:00,33.8,32.3,30.19,NNW,348,0.0,7.0,94,0.02,,---,0.09,VWS V14.01,2013-05-04 12:11:00,
2013-05-04 07:16:00,33.8,32.3,30.19,NNW,341,2.0,3.0,94,0.02,,---,0.09,VWS V14.01,2013-05-04 12:16:00,
2013-05-04 07:21:00,33.9,32.4,30.19,North,356,1.0,3.0,94,0.02,,---,0.09,VWS V14.01,2013-05-04 12:21:00,
2013-05-04 07:26:00,34.0,32.5,30.19,NW,320,0.0,6.0,94,0.03,,---,0.10,VWS V14.01,2013-05-04 12:26:00,
2013-05-04 07:31:00,34.0,32.5,30.19,North,359,1.0,5.0,94,0.03,,---,0.10,VWS V14.01,2013-05-04 12:31:00,
2013-05-04 07:36:00,34.0,32.5,30.19,North,355,1.0,5.0,94,0.03,,---,0.10,VWS V14.01,2013-05-04 12:36:00,
2013-05-04 07:41:00,34.1,32.6,30.19,NNE,20,0.0,5.0,94,0.03,,---,0.10,VWS V14.01,2013-05-04 12:41:00,
2013-05-04 07:46:00,34.1,32.6,30.19,North,358,1.0,6.0,94,0.02,,---,0.10,VWS V14.01,2013-05-04 12:46:00,
2013-05-04 07:51:00,34.3,33.0,30.19,North,360,0.0,6.0,95,0.02,,---,0.10,VWS V14.01,2013-05-04 12:51:00,
2013-05-04 07:56:00,34.3,32.8,30.19,North,356,0.0,6.0,94,0.02,,---,0.10,VWS V14.01,2013-05-04 12:56:00,
2013-05-04 08:01:00,34.3,32.8,30.19,NNW,344,0.0,3.0,94,0.01,,---,0.10,VWS V14.01,2013-05-04 13:01:00,
2013-05-04 08:03:00,34.4,32.9,30.19,NNW,338,0.0,3.0,94,0.01,,---,0.10,VWS V14.01,2013-05-04 13:03:00,
2013-05-04 08:08:00,34.4,32.9,30.19,North,351,0.0,3.0,94,0.01,,---,0.10,VWS V14.01,2013-05-04 13:08:00,
2013-05-04 08:13:00,34.4,32.9,30.19,NNE,16,1.0,6.0,94,0.01,,---,0.10,VWS V14.01,2013-05-04 13:13:00,
2013-05-04 08:18:00,34.4,32.9,30.19,North,10,1.0,8.0,94,0.01,,---,0.10,VWS V14.01,2013-05-04 13:18:00,
2013-05-04 08:23:00,34.5,33.0,30.19,NNE,16,4.0,8.0,94,0.01,,---,0.10,VWS V14.01,2013-05-04 13:23:00,
2013-05-04 08:28:00,34.6,33.0,30.19,North,352,1.0,5.0,94,0.00,,---,0.10,VWS V14.01,2013-05-04 13:28:00,
2013-05-04 08:33:00,34.8,33.2,30.19,North,10,1.0,5.0,94,0.00,,---,0.10,VWS V14.01,2013-05-04 13:33:00,
2013-05-04 08:38:00,34.8,33.2,30.19,NNE,26,1.0,6.0,94,0.00,,---,0.10,VWS V14.01,2013-05-04 13:38:00,
2013-05-04 08:43:00,34.9,33.3,30.19,NNW,346,1.0,2.0,94,0.00,,---,0.10,VWS V14.01,2013-05-04 13:43:00,
2013-05-04 08:48:00,35.2,33.7,30.19,North,355,1.0,4.0,94,0.00,,---,0.10,VWS V14.01,2013-05-04 13:48:00,
2013-05-04 08:53:00,35.4,33.8,30.19,NNE,26,4.0,5.0,94,0.00,,---,0.10,VWS V14.01,2013-05-04 13:53:00,
2013-05-04 08:58:00,35.4,33.8,30.20,NNE,26,2.0,4.0,94,0.00,,---,0.10,VWS V14.01,2013-05-04 13:58:00,
2013-05-04 09:03:00,35.5,34.0,30.19,NNE,22,1.0,4.0,94,0.00,,---,0.10,VWS V14.01,2013-05-04 14:03:00,
2013-05-04 09:08:00,35.5,34.0,30.19,North,352,2.0,7.0,94,0.00,,---,0.10,VWS V14.01,2013-05-04 14:08:00,
2013-05-04 09:13:00,35.4,33.8,30.19,NNE,19,3.0,5.0,94,0.00,,---,0.10,VWS V14.01,2013-05-04 14:13:00,
2013-05-04 09:18:00,35.4,33.6,30.19,NNE,14,4.0,6.0,93,0.00,,---,0.10,VWS V14.01,2013-05-04 14:18:00,
2013-05-04 09:23:00,35.7,34.2,30.19,NNW,332,1.0,6.0,94,0.00,,---,0.10,VWS V14.01,2013-05-04 14:23:00,
2013-05-04 09:28:00,36.0,34.4,30.19,NNE,31,3.0,4.0,94,0.00,,---,0.10,VWS V14.01,2013-05-04 14:28:00,
2013-05-04 09:33:00,36.1,34.5,30.19,North,7,1.0,5.0,94,0.00,,---,0.10,VWS V14.01,2013-05-04 14:33:00,
2013-05-04 09:38:00,36.3,34.5,30.19,NNE,29,3.0,5.0,93,0.00,,---,0.10,VWS V14.01,2013-05-04 14:38:00,
2013-05-04 09:43:00,36.3,34.5,30.20,North,349,3.0,4.0,93,0.00,,---,0.10,VWS V14.01,2013-05-04 14:43:00,
2013-05-04 09:48:00,36.3,34.5,30.20,NNE,31,3.0,5.0,93,0.00,,---,0.10,VWS V14.01,2013-05-04 14:48:00,
2013-05-04 09:53:00,36.4,34.6,30.19,NNW,335,1.0,5.0,93,0.00,,---,0.10,VWS V14.01,2013-05-04 14:53:00,
2013-05-04 09:58:00,36.9,35.3,30.19,North,11,1.0,2.0,94,0.00,,---,0.10,VWS V14.01,2013-05-04 14:58:00,
2013-05-04 10:03:00,37.2,35.4,30.20,North,354,2.0,7.0,93,0.00,,---,0.10,VWS V14.01,2013-05-04 15:03:00,
2013-05-04 10:08:00,37.1,35.3,30.20,North,5,0.0,7.0,93,0.00,,---,0.10,VWS V14.01,2013-05-04 15:08:00,
2013-05-04 10:13:00,37.1,35.0,30.20,NNW,332,1.0,6.0,92,0.00,,---,0.10,VWS V14.01,2013-05-04 15:13:00,
2013-05-04 10:18:00,37.1,35.0,30.20,NNE,12,2.0,6.0,92,0.00,,---,0.10,VWS V14.01,2013-05-04 15:18:00,
2013-05-04 10:23:00,37.5,35.7,30.20,NNW,335,0.0,6.0,93,0.00,,---,0.10,VWS V14.01,2013-05-04 15:23:00,
2013-05-04 10:28:00,37.6,35.8,30.20,NNW,344,1.0,2.0,93,0.00,,---,0.10,VWS V14.01,2013-05-04 15:28:00,
2013-05-04 10:33:00,37.7,35.6,30.20,NNW,342,1.0,5.0,92,0.00,,---,0.10,VWS V14.01,2013-05-04 15:33:00,
2013-05-04 10:38:00,38.0,35.9,30.20,North,8,1.0,6.0,92,0.00,,---,0.10,VWS V14.01,2013-05-04 15:38:00,
2013-05-04 10:43:00,38.2,36.1,30.20,NNE,23,3.0,3.0,92,0.00,,---,0.10,VWS V14.01,2013-05-04 15:43:00,
2013-05-04 10:48:00,38.2,36.1,30.20,NNW,348,2.0,5.0,92,0.00,,---,0.10,VWS V14.01,2013-05-04 15:48:00,
2013-05-04 10:53:00,38.5,36.4,30.19,North,349,0.0,5.0,92,0.00,,---,0.10,VWS V14.01,2013-05-04 15:53:00,
2013-05-04 10:58:00,38.9,36.8,30.19,NNE,16,3.0,4.0,92,0.00,,---,0.10,VWS V14.01,2013-05-04 15:58:00,
2013-05-04 11:03:00,39.1,37.0,30.19,North,349,5.0,5.0,92,0.00,,---,0.10,VWS V14.01,2013-05-04 16:03:00,
2013-05-04 11:08:00,39.2,37.1,30.19,NNE,22,2.0,5.0,92,0.00,,---,0.10,VWS V14.01,2013-05-04 16:08:00,
2013-05-04 11:13:00,39.4,37.0,30.19,NW,312,1.0,2.0,91,0.00,,---,0.10,VWS V14.01,2013-05-04 16:13:00,
2013-05-04 11:18:00,39.5,37.1,30.19,North,7,4.0,5.0,91,0.00,,---,0.10,VWS V14.01,2013-05-04 16:18:00,
2013-05-04 11:23:00,39.6,37.2,30.19,NNE,19,4.0,5.0,91,0.00,,---,0.10,VWS V14.01,2013-05-04 16:23:00,
2013-05-04 11:28:00,39.6,37.2,30.19,North,360,2.0,8.0,91,0.00,,---,0.10,VWS V14.01,2013-05-04 16:28:00,
2013-05-04 11:33:00,39.6,37.2,30.19,North,352,1.0,8.0,91,0.00,,---,0.10,VWS V14.01,2013-05-04 16:33:00,
2013-05-04 11:38:00,39.5,36.8,30.19,NNE,26,1.0,8.0,90,0.00,,---,0.10,VWS V14.01,2013-05-04 16:38:00,
2013-05-04 11:43:00,39.6,36.9,30.19,NNW,332,2.0,3.0,90,0.00,,---,0.10,VWS V14.01,2013-05-04 16:43:00,
2013-05-04 11:48:00,40.0,37.6,30.19,NE,45,2.0,5.0,91,0.00,,---,0.10,VWS V14.01,2013-05-04 16:48:00,
2013-05-04 11:53:00,40.2,37.8,30.20,NW,309,0.0,6.0,91,0.00,,---,0.10,VWS V14.01,2013-05-04 16:53:00,
2013-05-04 11:58:00,40.6,38.2,30.20,NW,321,1.0,5.0,91,0.00,,---,0.10,VWS V14.01,2013-05-04 16:58:00,
2013-05-04 12:03:00,40.3,37.3,30.20,NNE,29,3.0,7.0,89,0.00,,---,0.10,VWS V14.01,2013-05-04 17:03:00,
2013-05-04 12:08:00,40.2,37.5,30.20,NW,320,2.0,7.0,90,0.00,,---,0.10,VWS V14.01,2013-05-04 17:08:00,
2013-05-04 12:13:00,40.6,37.9,30.20,North,2,1.0,4.0,90,0.00,,---,0.10,VWS V14.01,2013-05-04 17:13:00,
2013-05-04 12:18:00,40.7,38.0,30.20,North,2,0.0,4.0,90,0.00,,---,0.10,VWS V14.01,2013-05-04 17:18:00,
2013-05-04 12:23:00,40.9,37.9,30.20,North,360,0.0,4.0,89,0.00,,---,0.10,VWS V14.01,2013-05-04 17:23:00,
2013-05-04 12:28:00,41.2,38.5,30.20,NNW,348,0.0,2.0,90,0.00,,---,0.10,VWS V14.01,2013-05-04 17:28:00,
2013-05-04 12:33:00,41.6,38.3,30.20,NNE,14,4.0,5.0,88,0.00,,---,0.10,VWS V14.01,2013-05-04 17:33:00,
2013-05-04 12:38:00,41.6,38.3,30.20,NNW,338,1.0,5.0,88,0.00,,---,0.10,VWS V14.01,2013-05-04 17:38:00,
2013-05-04 12:43:00,41.8,38.5,30.21,NNE,26,2.0,6.0,88,0.00,,---,0.10,VWS V14.01,2013-05-04 17:43:00,
2013-05-04 12:48:00,41.8,38.5,30.20,NNE,29,4.0,6.0,88,0.00,,---,0.10,VWS V14.01,2013-05-04 17:48:00,
2013-05-04 12:53:00,42.1,38.8,30.20,NNW,332,0.0,6.0,88,0.00,,---,0.10,VWS V14.01,2013-05-04 17:53:00,
2013-05-04 12:58:00,42.2,38.6,30.20,NE,40,3.0,4.0,87,0.00,,---,0.10,VWS V14.01,2013-05-04 17:58:00,
2013-05-04 13:03:00,42.8,39.5,30.20,NW,325,1.0,4.0,88,0.00,,---,0.10,VWS V14.01,2013-05-04 18:03:00,
2013-05-04 13:08:00,43.3,39.7,30.20,NNE,13,2.0,7.0,87,0.00,,---,0.10,VWS V14.01,2013-05-04 18:08:00,
2013-05-04 13:13:00,43.6,40.0,30.20,North,355,1.0,2.0,87,0.00,,---,0.10,VWS V14.01,2013-05-04 18:13:00,
2013-05-04 13:18:00,44.5,40.9,30.19,WNW,296,4.0,4.0,87,0.00,,---,0.10,VWS V14.01,2013-05-04 18:18:00,
2013-05-04 13:23:00,45.1,41.2,30.19,NNW,341,2.0,4.0,86,0.00,,---,0.10,VWS V14.01,2013-05-04 18:23:00,
2013-05-04 13:28:00,45.2,40.7,30.19,West,272,1.0,4.0,84,0.00,,---,0.10,VWS V14.01,2013-05-04 18:28:00,
2013-05-04 13:33:00,45.3,40.5,30.20,NNE,12,1.0,4.0,83,0.00,,---,0.10,VWS V14.01,2013-05-04 18:33:00,
2013-05-04 13:38:00,45.3,40.1,30.20,NNE,20,2.0,4.0,82,0.00,,---,0.10,VWS V14.01,2013-05-04 18:38:00,
2013-05-04 13:43:00,44.8,39.7,30.20,NNE,21,0.0,0.0,82,0.00,,---,0.10,VWS V14.01,2013-05-04 18:43:00,
2013-05-04 13:48:00,45.2,40.7,30.20,NNE,16,4.0,4.0,84,0.00,,---,0.10,VWS V14.01,2013-05-04 18:48:00,
2013-05-04 13:53:00,45.5,40.7,30.20,NNE,16,3.0,6.0,83,0.00,,---,0.10,VWS V14.01,2013-05-04 18:53:00,
2013-05-04 13:58:00,45.3,40.5,30.21,North,353,0.0,0.0,83,0.00,,---,0.10,VWS V14.01,2013-05-04 18:58:00,
2013-05-04 14:03:00,45.4,40.5,30.21,NE,42,0.0,2.0,83,0.00,,---,0.10,VWS V14.01,2013-05-04 19:03:00,
2013-05-04 14:08:00,45.8,40.9,30.20,North,352,1.0,2.0,83,0.00,,---,0.10,VWS V14.01,2013-05-04 19:08:00,
2013-05-04 14:13:00,46.1,40.9,30.20,NW,312,1.0,1.0,82,0.00,,---,0.10,VWS V14.01,2013-05-04 19:13:00,
2013-05-04 14:18:00,46.2,40.7,30.20,North,356,1.0,6.0,81,0.00,,---,0.10,VWS V14.01,2013-05-04 19:18:00,
2013-05-04 14:23:00,46.3,40.8,30.20,North,352,1.0,6.0,81,0.00,,---,0.10,VWS V14.01,2013-05-04 19:23:00,
2013-05-04 14:28:00,46.8,41.3,30.20,NNW,335,2.0,4.0,81,0.00,,---,0.10,VWS V14.01,2013-05-04 19:28:00,
2013-05-04 14:33:00,46.9,41.4,30.20,NNE,12,1.0,4.0,81,0.00,,---,0.10,VWS V14.01,2013-05-04 19:33:00,
2013-05-04 14:38:00,47.3,41.8,30.20,NW,317,1.0,4.0,81,0.00,,---,0.10,VWS V14.01,2013-05-04 19:38:00,
2013-05-04 14:43:00,48.1,42.5,30.19,NW,309,2.0,2.0,81,0.00,,---,0.10,VWS V14.01,2013-05-04 19:43:00,
2013-05-04 14:48:00,48.2,41.7,30.19,NNE,26,0.0,7.0,78,0.00,,---,0.10,VWS V14.01,2013-05-04 19:48:00,
2013-05-04 14:53:00,48.2,42.0,30.19,NW,313,2.0,7.0,79,0.00,,---,0.10,VWS V14.01,2013-05-04 19:53:00,
2013-05-04 14:58:00,48.5,41.6,30.19,NW,326,1.0,4.0,77,0.00,,---,0.10,VWS V14.01,2013-05-04 19:58:00,
2013-05-04 15:03:00,48.8,42.6,30.19,NNW,341,3.0,9.0,79,0.00,,---,0.10,VWS V14.01,2013-05-04 20:03:00,
2013-05-04 15:08:00,49.3,43.1,30.19,NW,308,1.0,9.0,79,0.00,,---,0.10,VWS V14.01,2013-05-04 20:08:00,
2013-05-04 15:13:00,49.3,42.4,30.19,NW,310,1.0,2.0,77,0.00,,---,0.10,VWS V14.01,2013-05-04 20:13:00,
2013-05-04 15:18:00,49.6,42.4,30.19,WNW,294,2.0,6.0,76,0.00,,---,0.10,VWS V14.01,2013-05-04 20:18:00,
2013-05-04 15:23:00,50.2,43.6,30.19,NNW,335,2.0,6.0,78,0.00,,---,0.10,VWS V14.01,2013-05-04 20:23:00,
2013-05-04 15:28:00,50.6,43.3,30.19,North,355,2.0,3.0,76,0.00,,---,0.10,VWS V14.01,2013-05-04 20:28:00,
2013-05-04 15:33:00,50.5,42.9,30.19,NNW,343,1.0,4.0,75,0.00,,---,0.10,VWS V14.01,2013-05-04 20:33:00,
2013-05-04 15:38:00,50.6,43.0,30.19,NNE,20,2.0,7.0,75,0.00,,---,0.10,VWS V14.01,2013-05-04 20:38:00,
2013-05-04 15:43:00,50.4,42.4,30.18,North,4,4.0,4.0,74,0.00,,---,0.10,VWS V14.01,2013-05-04 20:43:00,
2013-05-04 15:48:00,49.6,41.7,30.18,NE,36,5.0,8.0,74,0.00,,---,0.10,VWS V14.01,2013-05-04 20:48:00,
2013-05-04 15:53:00,49.3,42.1,30.18,NNE,16,4.0,8.0,76,0.00,,---,0.10,VWS V14.01,2013-05-04 20:53:00,
2013-05-04 15:58:00,49.1,41.9,30.18,North,358,1.0,3.0,76,0.00,,---,0.10,VWS V14.01,2013-05-04 20:58:00,
2013-05-04 16:03:00,48.9,41.7,30.18,NNE,21,3.0,7.0,76,0.00,,---,0.10,VWS V14.01,2013-05-04 21:03:00,
2013-05-04 16:08:00,48.6,41.7,30.18,NW,322,2.0,8.0,77,0.00,,---,0.10,VWS V14.01,2013-05-04 21:08:00,
2013-05-04 16:13:00,48.9,42.0,30.18,NE,37,2.0,6.0,77,0.00,,---,0.10,VWS V14.01,2013-05-04 21:13:00,
2013-05-04 16:18:00,48.4,41.2,30.18,NNW,341,1.0,7.0,76,0.00,,---,0.10,VWS V14.01,2013-05-04 21:18:00,
2013-05-04 16:23:00,48.6,41.7,30.18,NNE,12,3.0,7.0,77,0.00,,---,0.10,VWS V14.01,2013-05-04 21:23:00,
2013-05-04 16:28:00,48.8,42.3,30.18,NNW,335,1.0,1.0,78,0.00,,---,0.10,VWS V14.01,2013-05-04 21:28:00,
2013-05-04 16:33:00,49.1,41.9,30.18,North,3,1.0,4.0,76,0.00,,---,0.10,VWS V14.01,2013-05-04 21:33:00,
2013-05-04 16:37:00,48.8,41.9,30.18,NNW,333,2.0,6.0,77,0.00,,---,0.10,VWS V14.01,2013-05-04 21:37:00,
2013-05-04 16:42:00,48.3,41.1,30.18,NNW,346,4.0,6.0,76,0.00,,---,0.10,VWS V14.01,2013-05-04 21:42:00,
2013-05-04 16:47:00,48.2,41.7,30.18,NW,326,2.0,6.0,78,0.00,,---,0.10,VWS V14.01,2013-05-04 21:47:00,
2013-05-04 16:52:00,48.4,41.9,30.18,North,5,1.0,6.0,78,0.00,,---,0.10,VWS V14.01,2013-05-04 21:52:00,
2013-05-04 16:57:00,48.7,42.2,30.18,NW,321,1.0,3.0,78,0.00,,---,0.10,VWS V14.01,2013-05-04 21:57:00,
2013-05-04 17:02:00,48.7,41.8,30.18,NNW,327,3.0,3.0,77,0.00,,---,0.10,VWS V14.01,2013-05-04 22:02:00,
2013-05-04 17:07:00,48.6,41.7,30.18,NNW,332,1.0,5.0,77,0.00,,---,0.10,VWS V14.01,2013-05-04 22:07:00,
2013-05-04 17:12:00,48.7,42.2,30.18,NNW,330,1.0,2.0,78,0.00,,---,0.10,VWS V14.01,2013-05-04 22:12:00,
2013-05-04 17:17:00,48.7,42.2,30.19,North,349,1.0,5.0,78,0.00,,---,0.10,VWS V14.01,2013-05-04 22:17:00,
2013-05-04 17:22:00,49.0,42.5,30.18,NNE,33,4.0,5.0,78,0.00,,---,0.10,VWS V14.01,2013-05-04 22:22:00,
2013-05-04 17:27:00,49.1,42.2,30.19,NNW,329,1.0,2.0,77,0.00,,---,0.10,VWS V14.01,2013-05-04 22:27:00,
2013-05-04 17:32:00,48.4,41.5,30.19,NNE,21,2.0,8.0,77,0.00,,---,0.10,VWS V14.01,2013-05-04 22:32:00,
2013-05-04 17:37:00,48.5,42.0,30.19,North,353,2.0,8.0,78,0.00,,---,0.10,VWS V14.01,2013-05-04 22:37:00,
2013-05-04 17:42:00,48.4,41.9,30.19,NW,309,1.0,3.0,78,0.00,,---,0.10,VWS V14.01,2013-05-04 22:42:00,
2013-05-04 17:47:00,48.4,41.9,30.18,NNW,329,1.0,4.0,78,0.00,,---,0.10,VWS V14.01,2013-05-04 22:47:00,
2013-05-04 17:52:00,48.4,41.9,30.18,North,358,1.0,4.0,78,0.00,,---,0.10,VWS V14.01,2013-05-04 22:52:00,
2013-05-04 17:57:00,48.4,41.9,30.18,NNW,342,2.0,2.0,78,0.00,,---,0.10,VWS V14.01,2013-05-04 22:57:00,
2013-05-04 18:02:00,48.4,41.9,30.18,NW,320,2.0,4.0,78,0.00,,---,0.10,VWS V14.01,2013-05-04 23:02:00,
2013-05-04 18:07:00,48.5,42.0,30.18,NNW,329,1.0,4.0,78,0.00,,---,0.10,VWS V14.01,2013-05-04 23:07:00,
2013-05-04 18:12:00,48.6,42.1,30.19,North,355,0.0,1.0,78,0.00,,---,0.10,VWS V14.01,2013-05-04 23:12:00,
2013-05-04 18:17:00,48.8,42.3,30.18,NNW,346,1.0,5.0,78,0.00,,---,0.10,VWS V14.01,2013-05-04 23:17:00,
2013-05-04 18:22:00,48.9,42.0,30.18,NNW,332,1.0,5.0,77,0.00,,---,0.10,VWS V14.01,2013-05-04 23:22:00,
2013-05-04 18:27:00,48.9,42.0,30.18,West,272,1.0,4.0,77,0.00,,---,0.10,VWS V14.01,2013-05-04 23:27:00,
2013-05-04 18:32:00,48.8,41.9,30.18,NW,313,2.0,5.0,77,0.00,,---,0.10,VWS V14.01,2013-05-04 23:32:00,
2013-05-04 18:37:00,48.7,42.2,30.18,NNW,335,1.0,5.0,78,0.00,,---,0.10,VWS V14.01,2013-05-04 23:37:00,
2013-05-04 18:42:00,48.6,42.1,30.18,NNE,17,0.0,1.0,78,0.00,,---,0.10,VWS V14.01,2013-05-04 23:42:00,
2013-05-04 18:47:00,48.5,42.3,30.19,North,359,1.0,5.0,79,0.00,,---,0.10,VWS V14.01,2013-05-04 23:47:00,
2013-05-04 18:52:00,48.3,42.1,30.19,North,5,2.0,5.0,79,0.00,,---,0.10,VWS V14.01,2013-05-04 23:52:00,
2013-05-04 18:57:00,48.0,41.8,30.19,NNW,344,1.0,2.0,79,0.00,,---,0.10,VWS V14.01,2013-05-04 23:57:00,
2013-05-04 19:02:00,47.9,42.0,30.19,NW,315,1.0,3.0,80,0.00,,---,0.10,VWS V14.01,2013-05-05 00:02:00,
2013-05-04 19:07:00,47.9,42.0,30.19,NNW,335,1.0,3.0,80,0.00,,---,0.10,VWS V14.01,2013-05-05 00:07:00,
2013-05-04 19:12:00,47.8,41.9,30.19,NNW,335,0.0,1.0,80,0.00,,---,0.10,VWS V14.01,2013-05-05 00:12:00,
2013-05-04 19:17:00,47.7,41.8,30.19,NW,323,2.0,5.0,80,0.00,,---,0.10,VWS V14.01,2013-05-05 00:17:00,
2013-05-04 19:22:00,47.5,42.0,30.19,WNW,299,3.0,5.0,81,0.00,,---,0.10,VWS V14.01,2013-05-05 00:22:00,
2013-05-04 19:27:00,47.4,41.9,30.19,North,360,1.0,2.0,81,0.00,,---,0.10,VWS V14.01,2013-05-05 00:27:00,
2013-05-04 19:32:00,47.3,41.8,30.19,NNE,14,2.0,4.0,81,0.00,,---,0.10,VWS V14.01,2013-05-05 00:32:00,
2013-05-04 19:37:00,47.2,42.0,30.19,North,352,0.0,4.0,82,0.00,,---,0.10,VWS V14.01,2013-05-05 00:37:00,
2013-05-04 19:42:00,47.1,41.9,30.19,North,352,2.0,2.0,82,0.00,,---,0.10,VWS V14.01,2013-05-05 00:42:00,
2013-05-04 19:47:00,46.9,41.7,30.19,NNE,12,2.0,4.0,82,0.00,,---,0.10,VWS V14.01,2013-05-05 00:47:00,
2013-05-04 19:52:00,46.8,41.9,30.19,NNW,332,1.0,5.0,83,0.00,,---,0.10,VWS V14.01,2013-05-05 00:52:00,
2013-05-04 19:57:00,46.7,41.8,30.19,North,5,1.0,3.0,83,0.00,,---,0.10,VWS V14.01,2013-05-05 00:57:00,
2013-05-04 20:02:00,46.6,41.7,30.20,NNW,335,2.0,3.0,83,0.00,,---,0.10,VWS V14.01,2013-05-05 01:02:00,
2013-05-04 20:07:00,46.5,41.6,30.20,NNW,339,1.0,5.0,83,0.00,,---,0.10,VWS V14.01,2013-05-05 01:07:00,
2013-05-04 20:12:00,46.4,41.5,30.20,NNW,346,0.0,2.0,83,0.00,,---,0.10,VWS V14.01,2013-05-05 01:12:00,
2013-05-04 20:17:00,46.3,41.4,30.20,WNW,294,2.0,5.0,83,0.00,,---,0.10,VWS V14.01,2013-05-05 01:17:00,
2013-05-04 20:22:00,46.2,41.3,30.20,NNW,344,1.0,5.0,83,0.00,,---,0.10,VWS V14.01,2013-05-05 01:22:00,
2013-05-04 20:27:00,46.0,41.4,30.19,North,352,0.0,1.0,84,0.00,,---,0.10,VWS V14.01,2013-05-05 01:27:00,
2013-05-04 20:32:00,46.0,41.4,30.20,NNW,330,1.0,2.0,84,0.00,,---,0.10,VWS V14.01,2013-05-05 01:32:00,
2013-05-04 20:37:00,45.9,41.3,30.20,NNW,345,1.0,6.0,84,0.00,,---,0.10,VWS V14.01,2013-05-05 01:37:00,
2013-05-04 20:42:00,45.7,41.2,30.20,NNW,339,0.0,2.0,84,0.00,,---,0.10,VWS V14.01,2013-05-05 01:42:00,
2013-05-04 20:47:00,45.6,41.0,30.20,NW,318,1.0,3.0,84,0.00,,---,0.10,VWS V14.01,2013-05-05 01:47:00,
2013-05-04 20:52:00,45.5,41.0,30.21,North,2,1.0,4.0,84,0.00,,---,0.10,VWS V14.01,2013-05-05 01:52:00,
2013-05-04 20:57:00,45.4,40.9,30.21,North,351,3.0,4.0,84,0.00,,---,0.10,VWS V14.01,2013-05-05 01:57:00,
2013-05-04 21:02:00,45.3,40.8,30.21,North,2,2.0,4.0,84,0.00,,---,0.10,VWS V14.01,2013-05-05 02:02:00,
2013-05-04 21:07:00,45.2,40.7,30.21,North,353,0.0,9.0,84,0.00,,---,0.10,VWS V14.01,2013-05-05 02:07:00,
2013-05-04 21:12:00,45.2,41.0,30.21,North,359,1.0,1.0,85,0.00,,---,0.10,VWS V14.01,2013-05-05 02:12:00,
2013-05-04 21:17:00,45.1,40.9,30.21,North,353,1.0,4.0,85,0.00,,---,0.10,VWS V14.01,2013-05-05 02:17:00,
2013-05-04 21:22:00,45.1,40.9,30.21,NNW,342,0.0,4.0,85,0.00,,---,0.10,VWS V14.01,2013-05-05 02:22:00,
2013-05-04 21:27:00,45.0,40.5,30.21,NNE,22,2.0,4.0,84,0.00,,---,0.10,VWS V14.01,2013-05-05 02:27:00,
2013-05-04 21:32:00,44.9,40.4,30.21,North,7,1.0,5.0,84,0.00,,---,0.10,VWS V14.01,2013-05-05 02:32:00,
2013-05-04 21:37:00,44.8,40.3,30.22,NNE,20,2.0,6.0,84,0.00,,---,0.10,VWS V14.01,2013-05-05 02:37:00,
2013-05-04 21:42:00,44.7,40.2,30.22,NNE,23,0.0,1.0,84,0.00,,---,0.10,VWS V14.01,2013-05-05 02:42:00,
2013-05-04 21:47:00,44.7,40.2,30.22,North,351,0.0,2.0,84,0.00,,---,0.10,VWS V14.01,2013-05-05 02:47:00,
2013-05-04 21:52:00,44.5,40.3,30.22,NNW,345,1.0,5.0,85,0.00,,---,0.10,VWS V14.01,2013-05-05 02:52:00,
2013-05-04 21:57:00,44.3,40.1,30.22,North,11,1.0,2.0,85,0.00,,---,0.10,VWS V14.01,2013-05-05 02:57:00,
2013-05-04 22:02:00,44.2,40.0,30.21,NNW,345,0.0,3.0,85,0.00,,---,0.10,VWS V14.01,2013-05-05 03:02:00,
2013-05-04 22:07:00,44.0,39.8,30.21,NW,319,1.0,7.0,85,0.00,,---,0.10,VWS V14.01,2013-05-05 03:07:00,
2013-05-04 22:12:00,43.9,39.7,30.21,NNE,19,3.0,3.0,85,0.00,,---,0.10,VWS V14.01,2013-05-05 03:12:00,
2013-05-04 22:17:00,43.8,39.6,30.22,NNW,342,1.0,5.0,85,0.00,,---,0.10,VWS V14.01,2013-05-05 03:17:00,
2013-05-04 22:22:00,43.7,39.5,30.22,NNE,16,2.0,5.0,85,0.00,,---,0.10,VWS V14.01,2013-05-05 03:22:00,
2013-05-04 22:27:00,43.6,39.4,30.22,NNW,348,1.0,1.0,85,0.00,,---,0.10,VWS V14.01,2013-05-05 03:27:00,
2013-05-04 22:32:00,43.6,39.4,30.22,NNW,345,0.0,3.0,85,0.00,,---,0.10,VWS V14.01,2013-05-05 03:32:00,
2013-05-04 22:37:00,43.5,39.3,30.22,NNW,328,2.0,3.0,85,0.00,,---,0.10,VWS V14.01,2013-05-05 03:37:00,
2013-05-04 22:42:00,43.4,39.2,30.21,NNW,346,0.0,1.0,85,0.00,,---,0.10,VWS V14.01,2013-05-05 03:42:00,
2013-05-04 22:47:00,43.3,39.1,30.22,NNE,30,1.0,7.0,85,0.00,,---,0.10,VWS V14.01,2013-05-05 03:47:00,
2013-05-04 22:52:00,43.1,38.9,30.22,NNE,16,1.0,7.0,85,0.00,,---,0.10,VWS V14.01,2013-05-05 03:52:00,
2013-05-04 22:57:00,43.0,39.1,30.22,NNW,348,1.0,1.0,86,0.00,,---,0.10,VWS V14.01,2013-05-05 03:57:00,
2013-05-04 23:01:00,43.0,39.1,30.22,North,5,0.0,4.0,86,0.00,,---,0.10,VWS V14.01,2013-05-05 04:01:00,
2013-05-04 23:06:00,42.7,38.5,30.22,North,357,1.0,6.0,85,0.00,,---,0.10,VWS V14.01,2013-05-05 04:06:00,
2013-05-04 23:11:00,42.5,38.3,30.22,North,350,1.0,6.0,85,0.00,,---,0.10,VWS V14.01,2013-05-05 04:11:00,
2013-05-04 23:16:00,42.3,38.1,30.22,NNW,342,1.0,5.0,85,0.00,,---,0.10,VWS V14.01,2013-05-05 04:16:00,
2013-05-04 23:21:00,42.1,37.9,30.22,NNW,331,1.0,5.0,85,0.00,,---,0.10,VWS V14.01,2013-05-05 04:21:00,
2013-05-04 23:26:00,41.9,37.7,30.22,NNW,348,1.0,5.0,85,0.00,,---,0.10,VWS V14.01,2013-05-05 04:26:00,
2013-05-04 23:31:00,41.8,37.9,30.22,North,352,6.0,6.0,86,0.00,,---,0.10,VWS V14.01,2013-05-05 04:31:00,
2013-05-04 23:36:00,41.6,37.7,30.22,North,349,1.0,6.0,86,0.00,,---,0.10,VWS V14.01,2013-05-05 04:36:00,
2013-05-04 23:41:00,41.5,37.6,30.22,North,359,4.0,6.0,86,0.00,,---,0.10,VWS V14.01,2013-05-05 04:41:00,
2013-05-04 23:46:00,41.5,37.6,30.22,North,10,3.0,6.0,86,0.00,,---,0.10,VWS V14.01,2013-05-05 04:46:00,
2013-05-04 23:51:00,41.4,37.5,30.22,North,2,4.0,6.0,86,0.00,,---,0.10,VWS V14.01,2013-05-05 04:51:00,
2013-05-04 23:56:00,41.3,37.4,30.22,North,9,1.0,6.0,86,0.00,,---,0.10,VWS V14.01,2013-05-05 04:56:00,